createdAt,value
2022-10-26T00:01:05.429Z,12.44
2022-10-26T00:03:33.737Z,12.43
2022-10-26T00:06:10.198Z,12.35
2022-10-26T00:08:37.537Z,12.34
2022-10-26T00:11:05.633Z,12.35
2022-10-26T00:13:33.064Z,12.29
2022-10-26T00:16:01.386Z,12.27
2022-10-26T00:18:29.024Z,12.29
2022-10-26T00:20:56.705Z,12.30
2022-10-26T00:23:24.043Z,12.28
2022-10-26T00:25:55.648Z,12.29
2022-10-26T00:28:23.364Z,12.31
2022-10-26T00:30:50.824Z,12.20
2022-10-26T00:33:18.146Z,12.26
2022-10-26T00:35:49.474Z,12.26
2022-10-26T00:38:16.974Z,12.26
2022-10-26T00:40:45.000Z,12.27
2022-10-26T00:43:16.726Z,12.27
2022-10-26T00:45:44.955Z,12.24
2022-10-26T00:48:14.678Z,12.25
2022-10-26T00:50:43.065Z,12.28
2022-10-26T00:53:14.590Z,12.29
2022-10-26T00:55:43.395Z,12.32
2022-10-26T00:58:10.664Z,12.34
2022-10-26T01:00:38.315Z,12.31
2022-10-26T01:03:06.445Z,12.33
2022-10-26T01:05:33.762Z,12.29
2022-10-26T01:08:01.183Z,12.29
2022-10-26T01:10:28.572Z,12.34
2022-10-26T01:12:57.770Z,12.32
2022-10-26T01:15:28.248Z,12.27
2022-10-26T01:17:57.878Z,12.28
2022-10-26T01:20:48.253Z,12.30
2022-10-26T01:23:36.752Z,12.25
2022-10-26T01:26:22.934Z,12.19
2022-10-26T01:29:03.035Z,12.16
2022-10-26T01:31:33.572Z,12.21
2022-10-26T01:34:01.872Z,12.18
2022-10-26T01:36:38.431Z,12.15
2022-10-26T01:39:07.460Z,12.17
2022-10-26T01:41:37.064Z,12.07
2022-10-26T01:44:05.328Z,12.08
2022-10-26T01:46:37.616Z,12.03
2022-10-26T01:49:11.829Z,11.99
2022-10-26T01:51:41.974Z,11.96
2022-10-26T01:54:10.181Z,11.99
2022-10-26T01:56:39.371Z,11.92
2022-10-26T01:59:20.088Z,12.01
2022-10-26T02:01:52.227Z,12.05
2022-10-26T02:04:35.006Z,12.04
2022-10-26T02:07:03.769Z,12.04
2022-10-26T02:09:49.819Z,12.09
2022-10-26T02:12:21.984Z,12.06
2022-10-26T02:14:49.483Z,12.08
2022-10-26T02:17:20.788Z,12.08
2022-10-26T02:19:50.671Z,12.08
2022-10-26T02:22:19.496Z,12.09
2022-10-26T02:24:46.790Z,12.10
2022-10-26T02:27:16.638Z,12.11
2022-10-26T02:29:44.855Z,12.07
2022-10-26T02:32:12.299Z,12.09
2022-10-26T02:34:40.786Z,12.13
2022-10-26T02:37:08.577Z,12.03
2022-10-26T02:39:35.964Z,12.06
2022-10-26T02:42:05.684Z,12.09
2022-10-26T02:44:34.864Z,12.05
2022-10-26T02:47:02.904Z,12.06
2022-10-26T02:49:30.332Z,12.10
2022-10-26T02:52:09.619Z,12.12
2022-10-26T02:54:58.515Z,12.12
2022-10-26T02:57:33.634Z,12.18
2022-10-26T03:00:01.278Z,12.18
2022-10-26T03:02:30.396Z,12.11
2022-10-26T03:04:57.787Z,12.16
2022-10-26T03:07:25.406Z,12.16
2022-10-26T03:09:52.704Z,12.15
2022-10-26T03:12:20.235Z,12.21
2022-10-26T03:14:48.211Z,12.13
2022-10-26T03:17:16.853Z,12.22
2022-10-26T03:19:44.843Z,12.22
2022-10-26T03:22:12.119Z,12.21
2022-10-26T03:24:39.722Z,12.20
2022-10-26T03:27:07.240Z,12.23
2022-10-26T03:29:34.506Z,12.28
2022-10-26T03:32:04.532Z,12.35
2022-10-26T03:34:31.988Z,12.33
2022-10-26T03:36:59.643Z,12.28
2022-10-26T03:39:27.221Z,12.30
2022-10-26T03:41:56.076Z,12.35
2022-10-26T03:44:23.567Z,12.33
2022-10-26T03:46:50.862Z,12.31
2022-10-26T03:49:18.263Z,12.34
2022-10-26T03:51:45.629Z,12.30
2022-10-26T03:54:12.948Z,12.27
2022-10-26T03:56:40.280Z,12.30
2022-10-26T03:59:07.697Z,12.27
2022-10-26T04:01:35.184Z,12.35
2022-10-26T04:04:02.770Z,12.33
2022-10-26T04:06:30.793Z,12.39
2022-10-26T04:09:02.599Z,12.43
2022-10-26T04:11:30.461Z,12.40
2022-10-26T04:14:00.715Z,12.39
2022-10-26T04:16:32.504Z,12.39
2022-10-26T04:19:01.081Z,12.38
2022-10-26T04:21:28.741Z,12.41
2022-10-26T04:23:56.930Z,12.46
2022-10-26T04:26:24.740Z,12.46
2022-10-26T04:28:53.784Z,12.46
2022-10-26T04:31:21.238Z,12.42
2022-10-26T04:33:48.492Z,12.43
2022-10-26T04:36:15.774Z,12.43
2022-10-26T04:38:45.507Z,12.43
2022-10-26T04:41:13.196Z,12.45
2022-10-26T04:43:40.745Z,12.48
2022-10-26T04:46:09.137Z,12.45
2022-10-26T04:48:38.242Z,12.57
2022-10-26T04:51:05.831Z,12.53
2022-10-26T04:53:33.761Z,12.59
2022-10-26T04:56:01.270Z,12.61
2022-10-26T04:58:29.289Z,12.62
2022-10-26T05:00:56.942Z,12.66
2022-10-26T05:03:24.318Z,12.63
2022-10-26T05:05:51.748Z,12.65
2022-10-26T05:08:19.333Z,12.65
2022-10-26T05:10:50.291Z,12.65
2022-10-26T05:13:24.221Z,12.65
2022-10-26T05:15:55.109Z,12.72
2022-10-26T05:18:23.378Z,12.74
2022-10-26T05:20:52.449Z,12.68
2022-10-26T05:23:20.231Z,12.72
2022-10-26T05:25:48.039Z,12.73
2022-10-26T05:28:15.520Z,12.74
2022-10-26T05:30:43.956Z,12.78
2022-10-26T05:33:11.668Z,12.82
2022-10-26T05:35:39.271Z,12.75
2022-10-26T05:38:16.681Z,12.75
2022-10-26T05:40:51.670Z,12.87
2022-10-26T05:43:19.776Z,12.89
2022-10-26T05:45:47.434Z,12.91
2022-10-26T05:48:14.851Z,12.87
2022-10-26T05:50:42.231Z,12.89
2022-10-26T05:53:10.011Z,12.94
2022-10-26T05:55:37.606Z,12.91
2022-10-26T05:58:16.755Z,12.97
2022-10-26T06:00:50.637Z,12.96
2022-10-26T06:03:22.138Z,12.97
2022-10-26T06:06:00.682Z,13.01
2022-10-26T06:08:30.313Z,13.06
2022-10-26T06:10:59.543Z,13.02
2022-10-26T06:13:27.649Z,13.05
2022-10-26T06:16:01.460Z,13.05
2022-10-26T06:18:47.422Z,13.06
2022-10-26T06:21:35.045Z,13.11
2022-10-26T06:24:08.270Z,13.15
2022-10-26T06:26:38.307Z,13.15
2022-10-26T06:29:10.367Z,13.12
2022-10-26T06:31:38.713Z,13.23
2022-10-26T06:34:06.057Z,13.26
2022-10-26T06:36:34.362Z,13.25
2022-10-26T06:39:06.409Z,13.24
2022-10-26T06:41:35.234Z,13.30
2022-10-26T06:44:02.971Z,13.31
2022-10-26T06:46:33.712Z,13.33
2022-10-26T06:49:20.082Z,13.38
2022-10-26T06:51:49.889Z,13.41
2022-10-26T06:54:22.434Z,13.40
2022-10-26T06:56:49.930Z,13.45
2022-10-26T06:59:30.157Z,13.54
2022-10-26T07:01:57.993Z,13.47
2022-10-26T07:04:26.618Z,13.46
2022-10-26T07:06:57.214Z,13.51
2022-10-26T07:09:24.662Z,13.59
2022-10-26T07:11:52.002Z,13.53
2022-10-26T07:14:19.699Z,13.54
2022-10-26T07:16:47.477Z,13.55
2022-10-26T07:19:14.779Z,13.56
2022-10-26T07:21:42.193Z,13.56
2022-10-26T07:24:09.901Z,13.51
2022-10-26T07:26:37.414Z,13.59
2022-10-26T07:29:05.370Z,13.65
2022-10-26T07:31:33.134Z,13.62
2022-10-26T07:34:01.105Z,13.59
2022-10-26T07:36:29.078Z,13.63
2022-10-26T07:38:56.435Z,13.58
2022-10-26T07:41:26.530Z,13.59
2022-10-26T07:43:54.047Z,13.58
2022-10-26T07:46:21.361Z,13.61
2022-10-26T07:48:49.482Z,13.60
2022-10-26T07:51:16.960Z,13.68
2022-10-26T07:53:45.482Z,13.68
2022-10-26T07:56:13.600Z,13.74
2022-10-26T07:58:42.088Z,13.72
2022-10-26T08:01:11.034Z,13.82
2022-10-26T08:03:38.522Z,13.78
2022-10-26T08:06:06.272Z,13.75
2022-10-26T08:08:34.151Z,13.74
2022-10-26T08:11:03.278Z,13.72
2022-10-26T08:13:31.029Z,13.73
2022-10-26T08:16:00.288Z,13.69
2022-10-26T08:18:27.862Z,13.75
2022-10-26T08:21:01.792Z,13.83
2022-10-26T08:23:37.653Z,13.81
2022-10-26T08:26:06.601Z,13.76
2022-10-26T08:28:35.948Z,13.75
2022-10-26T08:31:03.213Z,13.77
2022-10-26T08:33:32.033Z,13.83
2022-10-26T08:36:00.170Z,13.81
2022-10-26T08:38:27.565Z,13.76
2022-10-26T08:40:54.928Z,13.77
2022-10-26T08:43:24.462Z,13.76
2022-10-26T08:45:52.738Z,13.80
2022-10-26T08:48:22.025Z,13.68
2022-10-26T08:50:55.944Z,13.79
2022-10-26T08:53:30.900Z,13.77
2022-10-26T08:55:59.974Z,13.83
2022-10-26T08:58:47.836Z,13.88
2022-10-26T09:01:16.469Z,13.84
2022-10-26T09:03:44.091Z,13.84
2022-10-26T09:06:13.623Z,13.89
2022-10-26T09:08:44.036Z,13.86
2022-10-26T09:11:32.547Z,13.88
2022-10-26T09:14:03.480Z,13.79
2022-10-26T09:16:37.588Z,13.79
2022-10-26T09:19:11.131Z,13.81
2022-10-26T09:21:48.474Z,13.81
2022-10-26T09:24:36.158Z,13.78
2022-10-26T09:27:26.651Z,13.70
2022-10-26T09:29:54.329Z,13.79
2022-10-26T09:32:23.529Z,13.73
2022-10-26T09:34:55.311Z,13.75
2022-10-26T09:37:27.046Z,13.75
2022-10-26T09:40:05.487Z,13.72
2022-10-26T09:42:33.202Z,13.71
2022-10-26T09:45:01.689Z,13.71
2022-10-26T09:47:37.253Z,13.65
2022-10-26T09:50:07.881Z,13.66
2022-10-26T09:52:35.389Z,13.61
2022-10-26T09:55:02.833Z,13.53
2022-10-26T09:57:32.424Z,13.63
2022-10-26T10:00:00.163Z,13.63
2022-10-26T10:02:37.759Z,13.67
2022-10-26T10:05:27.500Z,13.69
2022-10-26T10:08:11.090Z,13.70
2022-10-26T10:10:39.832Z,13.66
2022-10-26T10:13:16.881Z,13.55
2022-10-26T10:15:55.348Z,13.68
2022-10-26T10:18:23.893Z,13.64
2022-10-26T10:20:56.003Z,13.59
2022-10-26T10:23:31.506Z,13.70
2022-10-26T10:26:11.136Z,13.66
2022-10-26T10:28:39.219Z,13.64
2022-10-26T10:31:18.454Z,13.59
2022-10-26T10:33:47.002Z,13.57
2022-10-26T10:36:15.556Z,13.65
2022-10-26T10:38:44.153Z,13.69
2022-10-26T10:41:30.467Z,13.63
2022-10-26T10:44:07.931Z,13.63
2022-10-26T10:46:37.797Z,13.58
2022-10-26T10:49:06.057Z,13.62
2022-10-26T10:51:38.874Z,13.64
2022-10-26T10:54:06.517Z,13.68
2022-10-26T10:56:49.532Z,13.64
2022-10-26T10:59:26.114Z,13.65
2022-10-26T11:01:53.750Z,13.60
2022-10-26T11:04:25.509Z,13.62
2022-10-26T11:06:53.055Z,13.60
2022-10-26T11:09:21.723Z,13.56
2022-10-26T11:11:50.702Z,13.58
2022-10-26T11:14:24.003Z,13.54
2022-10-26T11:16:59.465Z,13.52
2022-10-26T11:19:34.716Z,13.53
2022-10-26T11:22:02.665Z,13.61
2022-10-26T11:24:32.178Z,13.59
2022-10-26T11:27:14.997Z,13.62
2022-10-26T11:30:01.306Z,13.57
2022-10-26T11:32:30.798Z,13.52
2022-10-26T11:35:05.033Z,13.61
2022-10-26T11:37:33.283Z,13.57
2022-10-26T11:40:19.549Z,13.49
2022-10-26T11:42:51.352Z,13.47
2022-10-26T11:45:31.690Z,13.40
2022-10-26T11:48:04.370Z,13.34
2022-10-26T11:50:35.189Z,13.30
2022-10-26T11:53:10.738Z,13.26
2022-10-26T11:55:38.363Z,13.18
2022-10-26T11:58:05.772Z,13.09
2022-10-26T12:00:33.208Z,13.12
2022-10-26T12:03:07.111Z,13.17
2022-10-26T12:05:36.211Z,13.15
2022-10-26T12:08:24.303Z,13.06
2022-10-26T12:11:04.240Z,13.11
2022-10-26T12:13:44.100Z,13.14
2022-10-26T12:16:24.572Z,13.12
2022-10-26T12:18:56.083Z,13.15
2022-10-26T12:21:25.258Z,13.22
2022-10-26T12:23:54.431Z,13.18
2022-10-26T12:26:25.017Z,13.21
2022-10-26T12:29:01.771Z,13.06
2022-10-26T12:31:36.644Z,13.11
2022-10-26T12:34:04.182Z,13.06
2022-10-26T12:36:48.863Z,13.05
2022-10-26T12:39:29.600Z,13.08
2022-10-26T12:42:06.378Z,13.02
2022-10-26T12:44:35.512Z,13.06
2022-10-26T12:47:03.249Z,13.10
2022-10-26T12:49:49.485Z,13.06
2022-10-26T12:52:20.567Z,13.06
2022-10-26T12:55:02.670Z,13.10
2022-10-26T12:57:50.397Z,13.08
2022-10-26T13:00:18.504Z,12.94
2022-10-26T13:02:45.918Z,12.96
2022-10-26T13:05:28.599Z,13.02
2022-10-26T13:08:09.107Z,13.07
2022-10-26T13:10:37.179Z,13.02
2022-10-26T13:13:06.020Z,12.96
2022-10-26T13:15:57.452Z,12.95
2022-10-26T13:18:25.114Z,12.92
2022-10-26T13:21:04.612Z,12.84
2022-10-26T13:23:32.659Z,12.95
2022-10-26T13:26:12.142Z,12.89
2022-10-26T13:28:39.659Z,12.90
2022-10-26T13:31:18.848Z,12.92
2022-10-26T13:33:46.177Z,12.92
2022-10-26T13:36:18.537Z,12.82
2022-10-26T13:38:46.042Z,12.84
2022-10-26T13:41:39.376Z,12.87
2022-10-26T13:44:07.201Z,12.79
2022-10-26T13:46:35.103Z,12.78
2022-10-26T13:49:09.889Z,12.80
2022-10-26T13:51:41.179Z,12.80
2022-10-26T13:54:20.392Z,12.96
2022-10-26T13:56:54.250Z,12.84
2022-10-26T13:59:21.662Z,12.87
2022-10-26T14:02:05.299Z,12.87
2022-10-26T14:04:32.893Z,12.87
2022-10-26T14:07:00.307Z,12.82
2022-10-26T14:10:18.521Z,12.82
2022-10-26T14:13:09.413Z,12.83
2022-10-26T14:15:38.554Z,12.77
2022-10-26T14:18:05.861Z,12.89
2022-10-26T14:20:34.131Z,12.79
2022-10-26T14:23:04.252Z,12.80
2022-10-26T14:25:41.977Z,12.75
2022-10-26T14:28:23.421Z,12.84
2022-10-26T14:30:51.768Z,12.87
2022-10-26T14:33:20.171Z,12.87
2022-10-26T14:35:47.706Z,12.85
2022-10-26T14:38:17.405Z,12.84
2022-10-26T14:40:45.098Z,12.88
2022-10-26T14:43:15.234Z,12.85
2022-10-26T14:45:48.663Z,12.80
2022-10-26T14:48:21.179Z,12.77
2022-10-26T14:50:59.106Z,12.76
2022-10-26T14:53:35.443Z,12.66
2022-10-26T14:56:03.652Z,12.76
2022-10-26T14:58:31.621Z,12.83
2022-10-26T15:01:24.733Z,12.79
2022-10-26T15:03:56.273Z,12.77
2022-10-26T15:06:30.754Z,12.76
2022-10-26T15:08:59.640Z,12.76
2022-10-26T15:11:27.038Z,12.78
2022-10-26T15:13:55.839Z,12.79
2022-10-26T15:16:23.883Z,12.81
2022-10-26T15:18:52.423Z,12.83
2022-10-26T15:21:26.627Z,12.84
2022-10-26T15:23:54.204Z,12.86
2022-10-26T15:26:24.232Z,12.87
2022-10-26T15:28:52.936Z,12.85
2022-10-26T15:31:20.436Z,12.83
2022-10-26T15:33:50.786Z,12.78
2022-10-26T15:36:18.946Z,12.79
2022-10-26T15:38:46.558Z,12.86
2022-10-26T15:41:14.282Z,12.75
2022-10-26T15:43:41.629Z,12.81
2022-10-26T15:46:12.031Z,12.71
2022-10-26T15:48:40.640Z,12.84
2022-10-26T15:51:10.734Z,12.81
2022-10-26T15:53:42.368Z,12.86
2022-10-26T15:56:14.830Z,12.87
2022-10-26T15:58:42.605Z,12.83
2022-10-26T16:01:19.360Z,12.81
2022-10-26T16:03:46.900Z,12.86
2022-10-26T16:06:16.216Z,12.85
2022-10-26T16:08:51.094Z,12.88
2022-10-26T16:11:21.049Z,12.90
2022-10-26T16:13:51.583Z,12.91
2022-10-26T16:16:20.457Z,12.88
2022-10-26T16:18:51.088Z,12.85
2022-10-26T16:21:19.256Z,12.82
2022-10-26T16:23:54.271Z,12.88
2022-10-26T16:26:24.123Z,12.91
2022-10-26T16:28:51.675Z,12.93
2022-10-26T16:31:19.406Z,12.91
2022-10-26T16:33:48.224Z,12.93
2022-10-26T16:36:15.749Z,12.96
2022-10-26T16:38:43.147Z,12.97
2022-10-26T16:41:11.228Z,12.96
2022-10-26T16:43:42.518Z,12.95
2022-10-26T16:46:10.785Z,12.87
2022-10-26T16:48:38.586Z,12.94
2022-10-26T16:51:31.409Z,12.89
2022-10-26T16:53:58.785Z,12.88
2022-10-26T16:56:27.152Z,12.92
2022-10-26T16:58:56.673Z,12.91
2022-10-26T17:01:25.166Z,12.91
2022-10-26T17:03:53.317Z,12.80
2022-10-26T17:06:21.370Z,12.87
2022-10-26T17:08:48.924Z,12.84
2022-10-26T17:11:17.806Z,12.88
2022-10-26T17:13:45.148Z,12.85
2022-10-26T17:16:16.527Z,12.89
2022-10-26T17:18:47.447Z,12.85
2022-10-26T17:21:15.512Z,12.79
2022-10-26T17:23:42.903Z,12.89
2022-10-26T17:26:11.094Z,12.83
2022-10-26T17:28:38.572Z,12.85
2022-10-26T17:31:07.176Z,12.88
2022-10-26T17:33:34.979Z,12.86
2022-10-26T17:36:03.197Z,12.91
2022-10-26T17:38:31.936Z,12.92
2022-10-26T17:41:02.872Z,12.94
2022-10-26T17:43:31.292Z,12.90
2022-10-26T17:46:02.096Z,12.94
2022-10-26T17:48:30.220Z,12.90
2022-10-26T17:51:01.082Z,12.94
2022-10-26T17:53:29.372Z,12.93
2022-10-26T17:56:00.963Z,12.94
2022-10-26T17:58:29.253Z,12.93
2022-10-26T18:00:56.603Z,12.92
2022-10-26T18:03:24.146Z,12.84
2022-10-26T18:05:51.602Z,12.92
2022-10-26T18:08:19.107Z,12.91
2022-10-26T18:10:52.209Z,12.88
2022-10-26T18:13:33.991Z,12.93
2022-10-26T18:16:08.292Z,12.92
2022-10-26T18:18:36.173Z,12.95
2022-10-26T18:21:05.470Z,12.91
2022-10-26T18:23:33.180Z,12.94
2022-10-26T18:26:11.207Z,12.90
2022-10-26T18:28:40.926Z,12.93
2022-10-26T18:31:09.595Z,12.92
2022-10-26T18:33:37.061Z,12.93
2022-10-26T18:36:05.595Z,12.98
2022-10-26T18:38:33.141Z,12.93
2022-10-26T18:41:00.864Z,12.89
2022-10-26T18:43:28.892Z,12.93
2022-10-26T18:46:04.607Z,12.84
2022-10-26T18:48:32.435Z,12.89
2022-10-26T18:51:10.351Z,12.89
2022-10-26T18:53:38.096Z,12.93
2022-10-26T18:56:06.212Z,12.87
2022-10-26T18:58:41.288Z,12.89
2022-10-26T19:01:10.114Z,12.89
2022-10-26T19:03:37.815Z,12.87
2022-10-26T19:06:17.338Z,12.77
2022-10-26T19:08:44.972Z,12.80
2022-10-26T19:11:13.026Z,12.76
2022-10-26T19:13:42.084Z,12.81
2022-10-26T19:16:21.761Z,12.81
2022-10-26T19:18:56.259Z,12.78
2022-10-26T19:21:24.718Z,12.71
2022-10-26T19:23:53.046Z,12.83
2022-10-26T19:26:22.368Z,12.87
2022-10-26T19:28:59.721Z,12.87
2022-10-26T19:31:27.631Z,12.82
2022-10-26T19:33:56.590Z,12.78
2022-10-26T19:36:24.233Z,12.78
2022-10-26T19:38:51.742Z,12.76
2022-10-26T19:41:19.161Z,12.86
2022-10-26T19:43:46.627Z,12.81
2022-10-26T19:46:15.341Z,12.87
2022-10-26T19:48:47.864Z,12.86
2022-10-26T19:51:15.290Z,12.89
2022-10-26T19:53:42.700Z,12.90
2022-10-26T19:56:12.439Z,12.90
2022-10-26T19:58:40.550Z,12.92
2022-10-26T20:01:08.037Z,12.85
2022-10-26T20:03:35.654Z,12.87
2022-10-26T20:06:13.300Z,12.78
2022-10-26T20:08:41.136Z,12.81
2022-10-26T20:11:11.549Z,12.81
2022-10-26T20:13:42.543Z,12.79
2022-10-26T20:16:10.364Z,12.79
2022-10-26T20:18:42.547Z,12.82
2022-10-26T20:21:14.255Z,12.84
2022-10-26T20:23:42.764Z,12.80
2022-10-26T20:26:18.066Z,12.78
2022-10-26T20:28:48.707Z,12.85
2022-10-26T20:31:17.149Z,12.79
2022-10-26T20:33:44.760Z,12.74
2022-10-26T20:36:12.280Z,12.75
2022-10-26T20:38:39.996Z,12.73
2022-10-26T20:41:10.278Z,12.74
2022-10-26T20:43:38.671Z,12.78
2022-10-26T20:46:06.987Z,12.81
2022-10-26T20:48:34.760Z,12.75
2022-10-26T20:51:06.679Z,12.71
2022-10-26T20:53:42.824Z,12.65
2022-10-26T20:56:28.704Z,12.76
2022-10-26T20:58:56.778Z,12.81
2022-10-26T21:01:28.560Z,12.75
2022-10-26T21:03:56.329Z,12.67
2022-10-26T21:06:23.926Z,12.69
2022-10-26T21:08:51.612Z,12.54
2022-10-26T21:11:19.002Z,12.58
2022-10-26T21:13:52.178Z,12.49
2022-10-26T21:18:52.727Z,12.45
2022-10-26T21:21:21.560Z,12.45
2022-10-26T21:23:49.419Z,12.47
2022-10-26T21:26:16.968Z,12.40
2022-10-26T21:28:47.375Z,12.43
2022-10-26T21:31:15.498Z,12.47
2022-10-26T21:33:42.848Z,12.51
2022-10-26T21:36:14.050Z,12.51
2022-10-26T21:38:41.954Z,12.44
2022-10-26T21:41:10.097Z,12.46
2022-10-26T21:43:38.185Z,12.43
2022-10-26T21:46:06.107Z,12.46
2022-10-26T21:48:34.615Z,12.45
2022-10-26T21:51:02.543Z,12.45
2022-10-26T21:53:30.256Z,12.38
2022-10-26T21:56:04.979Z,12.35
2022-10-26T21:58:33.066Z,12.26
2022-10-26T22:01:04.419Z,12.23
2022-10-26T22:03:32.128Z,12.30
2022-10-26T22:05:59.491Z,12.39
2022-10-26T22:08:27.704Z,12.44
2022-10-26T22:10:55.811Z,12.41
2022-10-26T22:13:23.383Z,12.38
2022-10-26T22:16:01.766Z,12.31
2022-10-26T22:18:29.432Z,12.39
2022-10-26T22:20:57.261Z,12.31
2022-10-26T22:23:28.004Z,12.28
2022-10-26T22:25:55.573Z,12.24
2022-10-26T22:28:23.238Z,12.39
2022-10-26T22:30:51.158Z,12.42
2022-10-26T22:33:18.669Z,12.37
2022-10-26T22:35:46.007Z,12.29
2022-10-26T22:38:13.848Z,12.25
2022-10-26T22:40:41.267Z,12.27
2022-10-26T22:43:09.320Z,12.33
2022-10-26T22:45:38.347Z,12.38
2022-10-26T22:48:05.851Z,12.23
2022-10-26T22:50:33.459Z,12.28
2022-10-26T22:53:00.803Z,12.26
2022-10-26T22:55:28.063Z,12.31
2022-10-26T22:57:55.435Z,12.35
2022-10-26T23:00:22.796Z,12.27
2022-10-26T23:02:50.296Z,12.33
2022-10-26T23:05:17.568Z,12.42
2022-10-26T23:07:44.848Z,12.43
2022-10-26T23:10:12.272Z,12.37
2022-10-26T23:12:39.572Z,12.46
2022-10-26T23:15:07.370Z,12.31
2022-10-26T23:17:34.768Z,12.36
2022-10-26T23:20:02.153Z,12.47
2022-10-26T23:22:29.660Z,12.40
2022-10-26T23:24:56.965Z,12.39
2022-10-26T23:27:24.273Z,12.41
2022-10-26T23:29:51.567Z,12.35
2022-10-26T23:32:18.927Z,12.39
2022-10-26T23:34:46.229Z,12.38
2022-10-26T23:37:13.644Z,12.39
2022-10-26T23:39:41.069Z,12.47
2022-10-26T23:42:08.461Z,12.42
2022-10-26T23:44:36.299Z,12.42
2022-10-26T23:47:04.172Z,12.43
2022-10-26T23:49:32.403Z,12.41
2022-10-26T23:51:59.825Z,12.38
2022-10-26T23:54:29.372Z,12.29
2022-10-26T23:56:56.778Z,12.38
2022-10-26T23:59:24.364Z,12.41
